createdAt,value
2022-11-09T00:01:43.363Z,0.70
2022-11-09T00:04:10.912Z,1.10
2022-11-09T00:06:37.892Z,0.70
2022-11-09T00:09:08.199Z,1.38
2022-11-09T00:11:36.951Z,0.90
2022-11-09T00:14:04.225Z,0.90
2022-11-09T00:16:31.109Z,0.98
2022-11-09T00:18:58.618Z,1.05
2022-11-09T00:21:25.669Z,0.90
2022-11-09T00:23:52.826Z,1.02
2022-11-09T00:26:20.640Z,0.65
2022-11-09T00:28:47.788Z,0.85
2022-11-09T00:31:20.620Z,0.90
2022-11-09T00:33:51.310Z,1.00
2022-11-09T00:36:18.884Z,1.08
2022-11-09T00:38:49.969Z,1.10
2022-11-09T00:41:17.029Z,1.10
2022-11-09T00:43:43.986Z,0.90
2022-11-09T00:46:11.142Z,1.00
2022-11-09T00:48:38.142Z,0.73
2022-11-09T00:51:05.277Z,0.95
2022-11-09T00:53:32.503Z,1.00
2022-11-09T00:55:59.201Z,0.70
2022-11-09T00:58:27.478Z,0.80
2022-11-09T01:00:55.823Z,0.75
2022-11-09T01:03:23.177Z,0.93
2022-11-09T01:05:50.416Z,0.85
2022-11-09T01:08:18.355Z,1.33
2022-11-09T01:10:47.674Z,0.70
2022-11-09T01:13:16.182Z,0.77
2022-11-09T01:15:46.284Z,0.57
2022-11-09T01:18:14.702Z,0.50
2022-11-09T01:20:43.282Z,0.70
2022-11-09T01:23:11.387Z,0.80
2022-11-09T01:25:38.363Z,1.02
2022-11-09T01:28:05.881Z,1.13
2022-11-09T01:30:36.181Z,0.90
2022-11-09T01:33:04.458Z,0.85
2022-11-09T01:35:35.090Z,1.00
2022-11-09T01:38:03.172Z,1.00
2022-11-09T01:40:34.156Z,1.10
2022-11-09T01:45:53.699Z,1.40
2022-11-09T01:48:44.065Z,1.05
2022-11-09T01:51:25.237Z,0.77
2022-11-09T01:56:20.490Z,1.27
2022-11-09T01:58:50.723Z,1.10
2022-11-09T02:01:17.991Z,1.30
2022-11-09T02:03:56.312Z,1.08
2022-11-09T02:06:26.330Z,1.23
2022-11-09T02:08:54.857Z,1.10
2022-11-09T02:11:22.391Z,1.20
2022-11-09T02:13:53.224Z,1.10
2022-11-09T02:16:20.851Z,1.15
2022-11-09T02:18:53.520Z,1.42
2022-11-09T02:21:21.424Z,1.10
2022-11-09T02:23:48.221Z,1.45
2022-11-09T02:26:31.413Z,1.60
2022-11-09T02:28:59.932Z,1.30
2022-11-09T02:31:29.764Z,1.13
2022-11-09T02:34:04.100Z,0.98
2022-11-09T02:36:32.550Z,0.70
2022-11-09T02:39:01.433Z,0.70
2022-11-09T02:41:30.792Z,1.60
2022-11-09T02:43:58.659Z,1.20
2022-11-09T02:46:31.438Z,1.10
2022-11-09T02:49:00.030Z,1.45
2022-11-09T02:51:27.043Z,1.30
2022-11-09T02:53:54.155Z,1.40
2022-11-09T02:56:22.738Z,0.93
2022-11-09T02:58:49.592Z,1.00
2022-11-09T03:01:18.244Z,0.90
2022-11-09T03:03:45.188Z,1.13
2022-11-09T03:06:13.215Z,1.20
2022-11-09T03:08:42.667Z,1.52
2022-11-09T03:11:09.439Z,1.02
2022-11-09T03:13:36.385Z,1.27
2022-11-09T03:16:07.971Z,1.05
2022-11-09T03:18:38.384Z,1.13
2022-11-09T03:21:06.581Z,1.23
2022-11-09T03:23:33.886Z,0.77
2022-11-09T03:26:02.006Z,1.05
2022-11-09T03:28:29.265Z,0.98
2022-11-09T03:30:57.081Z,1.00
2022-11-09T03:33:23.969Z,0.80
2022-11-09T03:35:51.376Z,1.00
2022-11-09T03:38:19.350Z,0.63
2022-11-09T03:40:47.537Z,0.70
2022-11-09T03:43:14.315Z,1.17
2022-11-09T03:45:41.371Z,1.52
2022-11-09T03:48:08.168Z,1.00
2022-11-09T03:50:35.754Z,0.70
2022-11-09T03:53:02.837Z,0.70
2022-11-09T03:55:29.604Z,0.90
2022-11-09T03:57:56.347Z,1.05
2022-11-09T04:00:23.850Z,0.90
2022-11-09T04:02:51.269Z,0.82
2022-11-09T04:05:18.300Z,1.17
2022-11-09T04:07:50.410Z,0.90
2022-11-09T04:10:18.018Z,1.00
2022-11-09T04:12:44.723Z,0.90
2022-11-09T04:15:11.827Z,0.85
2022-11-09T04:17:38.736Z,0.90
2022-11-09T04:20:07.357Z,0.90
2022-11-09T04:22:34.610Z,0.80
2022-11-09T04:25:01.403Z,0.70
2022-11-09T04:27:29.987Z,0.75
2022-11-09T04:29:56.912Z,0.70
2022-11-09T04:32:23.835Z,0.68
2022-11-09T04:34:50.639Z,0.82
2022-11-09T04:37:17.385Z,0.82
2022-11-09T04:39:44.369Z,0.50
2022-11-09T04:42:11.598Z,0.68
2022-11-09T04:44:38.866Z,0.50
2022-11-09T04:47:05.625Z,0.60
2022-11-09T04:49:32.440Z,0.60
2022-11-09T04:51:59.258Z,0.60
2022-11-09T04:54:26.179Z,0.88
2022-11-09T04:56:52.926Z,0.80
2022-11-09T04:59:19.768Z,0.70
2022-11-09T05:01:46.559Z,1.13
2022-11-09T05:04:13.580Z,0.80
2022-11-09T05:06:40.976Z,0.80
2022-11-09T05:09:08.054Z,0.50
2022-11-09T05:11:35.802Z,0.70
2022-11-09T05:14:03.124Z,0.57
2022-11-09T05:16:30.219Z,0.70
2022-11-09T05:18:57.112Z,0.63
2022-11-09T05:21:24.071Z,0.50
2022-11-09T05:23:59.820Z,0.57
2022-11-09T05:26:27.763Z,0.60
2022-11-09T05:28:54.991Z,0.65
2022-11-09T05:31:22.148Z,0.60
2022-11-09T05:33:50.527Z,0.60
2022-11-09T05:36:17.983Z,0.60
2022-11-09T05:38:45.567Z,0.50
2022-11-09T05:41:12.786Z,0.65
2022-11-09T05:43:39.543Z,0.60
2022-11-09T05:46:06.973Z,0.65
2022-11-09T05:48:33.807Z,0.43
2022-11-09T05:51:02.453Z,0.60
2022-11-09T05:53:29.540Z,0.50
2022-11-09T05:55:56.620Z,0.88
2022-11-09T05:58:24.273Z,0.57
2022-11-09T06:00:51.137Z,0.50
2022-11-09T06:03:18.325Z,0.63
2022-11-09T06:05:45.380Z,0.57
2022-11-09T06:08:14.184Z,0.70
2022-11-09T06:10:42.435Z,0.90
2022-11-09T06:13:09.481Z,0.85
2022-11-09T06:15:36.425Z,1.00
2022-11-09T06:18:03.340Z,0.63
2022-11-09T06:20:30.185Z,0.70
2022-11-09T06:23:02.762Z,0.70
2022-11-09T06:25:31.972Z,0.50
2022-11-09T06:27:58.837Z,0.50
2022-11-09T06:30:26.607Z,0.70
2022-11-09T06:33:01.607Z,0.70
2022-11-09T06:35:28.956Z,0.60
2022-11-09T06:37:59.950Z,0.85
2022-11-09T06:42:58.349Z,0.50
2022-11-09T06:45:25.740Z,0.50
2022-11-09T06:47:55.811Z,0.60
2022-11-09T06:50:22.707Z,0.70
2022-11-09T06:52:49.486Z,0.70
2022-11-09T06:55:16.555Z,1.25
2022-11-09T06:57:43.310Z,0.70
2022-11-09T07:00:10.809Z,0.60
2022-11-09T07:02:37.533Z,0.60
2022-11-09T07:05:04.808Z,0.75
2022-11-09T07:07:31.737Z,0.90
2022-11-09T07:09:58.526Z,0.65
2022-11-09T07:12:25.355Z,0.95
2022-11-09T07:14:52.158Z,1.08
2022-11-09T07:17:18.884Z,1.00
2022-11-09T07:19:46.038Z,1.10
2022-11-09T07:22:13.074Z,0.73
2022-11-09T07:24:39.916Z,0.80
2022-11-09T07:27:06.646Z,0.80
2022-11-09T07:29:33.612Z,0.90
2022-11-09T07:32:00.413Z,1.05
2022-11-09T07:34:27.237Z,0.60
2022-11-09T07:36:54.588Z,0.73
2022-11-09T07:39:21.607Z,0.60
2022-11-09T07:41:48.976Z,0.73
2022-11-09T07:44:18.439Z,0.60
2022-11-09T07:46:48.011Z,0.52
2022-11-09T07:49:16.233Z,0.75
2022-11-09T07:51:43.314Z,0.60
2022-11-09T07:54:10.996Z,0.57
2022-11-09T07:56:37.929Z,0.82
2022-11-09T07:59:04.904Z,0.85
2022-11-09T08:01:31.924Z,0.80
2022-11-09T08:03:58.743Z,1.00
2022-11-09T08:06:28.179Z,0.80
2022-11-09T08:08:55.815Z,0.82
2022-11-09T08:11:22.654Z,0.90
2022-11-09T08:13:49.822Z,0.70
2022-11-09T08:16:16.718Z,1.02
2022-11-09T08:18:43.630Z,0.82
2022-11-09T08:21:10.742Z,0.80
2022-11-09T08:23:37.545Z,0.90
2022-11-09T08:26:06.189Z,0.50
2022-11-09T08:28:34.104Z,0.80
2022-11-09T08:31:03.198Z,0.80
2022-11-09T08:33:33.275Z,0.70
2022-11-09T08:36:00.452Z,1.20
2022-11-09T08:38:27.330Z,0.82
2022-11-09T08:40:58.905Z,1.00
2022-11-09T08:43:26.248Z,1.58
2022-11-09T08:45:53.451Z,1.35
2022-11-09T08:48:20.629Z,0.80
2022-11-09T08:50:55.588Z,1.25
2022-11-09T08:53:23.438Z,0.90
2022-11-09T08:55:50.245Z,0.68
2022-11-09T08:58:18.114Z,0.80
2022-11-09T09:00:45.331Z,0.95
2022-11-09T09:03:12.226Z,1.20
2022-11-09T09:05:39.158Z,0.80
2022-11-09T09:08:06.881Z,1.00
2022-11-09T09:10:35.633Z,0.88
2022-11-09T09:13:04.136Z,1.10
2022-11-09T09:15:31.140Z,1.10
2022-11-09T09:18:02.123Z,0.80
2022-11-09T09:22:58.690Z,0.88
2022-11-09T09:25:26.486Z,1.17
2022-11-09T09:27:53.294Z,1.10
2022-11-09T09:30:20.331Z,1.08
2022-11-09T09:32:47.148Z,0.85
2022-11-09T09:35:14.034Z,1.15
2022-11-09T09:37:40.973Z,1.60
2022-11-09T09:40:08.497Z,1.35
2022-11-09T09:42:36.954Z,1.52
2022-11-09T09:45:04.128Z,1.73
2022-11-09T09:47:44.362Z,1.65
2022-11-09T09:50:19.025Z,1.70
2022-11-09T09:53:18.075Z,1.27
2022-11-09T09:55:48.345Z,1.48
2022-11-09T09:58:26.038Z,2.00
2022-11-09T10:00:55.346Z,2.03
2022-11-09T10:03:22.086Z,1.52
2022-11-09T10:06:27.768Z,1.75
2022-11-09T10:08:57.654Z,2.15
2022-11-09T10:11:50.386Z,1.55
2022-11-09T10:14:48.275Z,1.40
2022-11-09T10:17:17.802Z,2.33
2022-11-09T10:20:19.756Z,1.40
2022-11-09T10:23:07.277Z,1.73
2022-11-09T10:26:02.265Z,1.88
2022-11-09T10:28:27.327Z,1.20
2022-11-09T10:30:54.303Z,1.48
2022-11-09T10:33:21.940Z,1.13
2022-11-09T10:36:06.884Z,1.45
2022-11-09T10:38:43.896Z,1.25
2022-11-09T10:41:33.636Z,1.40
2022-11-09T10:44:20.634Z,1.20
2022-11-09T10:47:09.506Z,2.10
2022-11-09T10:50:26.945Z,1.35
2022-11-09T10:53:18.296Z,1.08
2022-11-09T10:56:21.153Z,0.98
2022-11-09T10:59:29.838Z,1.30
2022-11-09T11:02:24.550Z,1.23
2022-11-09T11:05:09.753Z,1.48
2022-11-09T11:07:55.782Z,1.40
2022-11-09T11:10:41.163Z,1.45
2022-11-09T11:13:26.645Z,1.40
2022-11-09T11:16:47.698Z,1.58
2022-11-09T11:19:36.460Z,2.05
2022-11-09T11:22:27.537Z,1.25
2022-11-09T11:25:21.698Z,2.17
2022-11-09T11:28:21.889Z,1.85
2022-11-09T11:31:16.026Z,1.47
2022-11-09T11:34:02.003Z,1.63
2022-11-09T11:36:56.273Z,1.33
2022-11-09T11:40:03.926Z,1.50
2022-11-09T11:42:59.002Z,1.90
2022-11-09T11:45:44.474Z,1.27
2022-11-09T11:48:51.528Z,1.50
2022-11-09T11:52:05.621Z,2.05
2022-11-09T11:55:19.302Z,1.40
2022-11-09T11:58:19.727Z,1.60
2022-11-09T12:01:47.187Z,1.67
2022-11-09T12:05:15.818Z,1.40
2022-11-09T12:08:07.409Z,1.92
2022-11-09T12:10:59.843Z,1.92
2022-11-09T12:14:00.788Z,1.67
2022-11-09T12:17:24.443Z,2.10
2022-11-09T12:20:16.662Z,1.27
2022-11-09T12:23:10.805Z,1.90
2022-11-09T12:26:02.818Z,1.88
2022-11-09T12:29:16.068Z,1.52
2022-11-09T12:32:38.667Z,1.05
2022-11-09T12:35:30.626Z,1.80
2022-11-09T12:38:24.429Z,1.80
2022-11-09T12:41:17.056Z,1.58
2022-11-09T12:44:28.282Z,2.50
2022-11-09T12:50:01.531Z,2.10
2022-11-09T12:52:48.874Z,1.05
2022-11-09T12:55:46.690Z,1.80
2022-11-09T12:58:33.629Z,1.63
2022-11-09T13:01:34.366Z,2.03
2022-11-09T13:04:21.553Z,1.38
2022-11-09T13:07:06.879Z,1.70
2022-11-09T13:09:57.028Z,1.80
2022-11-09T13:12:43.302Z,1.83
2022-11-09T13:15:31.368Z,1.60
2022-11-09T13:18:35.499Z,1.77
2022-11-09T13:21:21.866Z,1.60
2022-11-09T13:24:31.925Z,1.90
2022-11-09T13:27:35.013Z,1.77
2022-11-09T13:30:23.789Z,1.60
2022-11-09T13:33:15.133Z,1.77
2022-11-09T13:36:06.487Z,1.98
2022-11-09T13:39:28.540Z,1.60
2022-11-09T13:42:31.118Z,1.40
2022-11-09T13:45:25.675Z,1.77
2022-11-09T13:48:31.012Z,1.45
2022-11-09T13:51:19.098Z,1.70
2022-11-09T13:54:05.917Z,1.63
2022-11-09T13:56:51.382Z,2.22
2022-11-09T13:59:45.151Z,1.48
2022-11-09T14:02:30.830Z,1.95
2022-11-09T14:05:26.985Z,1.83
2022-11-09T14:08:27.914Z,2.13
2022-11-09T14:11:57.670Z,2.40
2022-11-09T14:15:02.835Z,2.80
2022-11-09T14:17:51.135Z,2.15
2022-11-09T14:20:45.054Z,2.08
2022-11-09T14:23:31.814Z,1.98
2022-11-09T14:26:20.109Z,2.92
2022-11-09T14:29:20.965Z,2.20
2022-11-09T14:35:20.349Z,2.08
2022-11-09T14:41:02.071Z,1.98
2022-11-09T14:43:48.721Z,1.88
2022-11-09T14:46:33.928Z,1.77
2022-11-09T14:49:20.958Z,2.22
2022-11-09T14:52:06.378Z,2.03
2022-11-09T14:54:51.795Z,1.70
2022-11-09T14:57:38.322Z,1.80
2022-11-09T15:00:29.693Z,1.42
2022-11-09T15:03:29.251Z,1.70
2022-11-09T15:06:17.332Z,1.70
2022-11-09T15:09:09.646Z,1.80
2022-11-09T15:11:54.846Z,1.42
2022-11-09T15:14:40.124Z,1.30
2022-11-09T15:17:28.674Z,1.20
2022-11-09T15:20:14.311Z,1.40
2022-11-09T15:22:59.831Z,1.23
2022-11-09T15:25:45.654Z,1.90
2022-11-09T15:28:32.343Z,1.80
2022-11-09T15:31:19.402Z,0.95
2022-11-09T15:34:24.755Z,1.00
2022-11-09T15:37:23.725Z,1.55
2022-11-09T15:40:14.557Z,2.10
2022-11-09T15:42:59.676Z,1.60
2022-11-09T15:45:45.049Z,1.48
2022-11-09T15:48:30.878Z,1.83
2022-11-09T15:51:16.684Z,1.67
2022-11-09T15:54:02.122Z,1.92
2022-11-09T15:56:47.480Z,2.15
2022-11-09T15:59:32.733Z,1.73
2022-11-09T16:02:21.232Z,1.60
2022-11-09T16:05:07.223Z,1.75
2022-11-09T16:07:54.211Z,2.08
2022-11-09T16:10:40.435Z,1.80
2022-11-09T16:13:26.013Z,1.63
2022-11-09T16:16:13.967Z,1.35
2022-11-09T16:18:59.343Z,1.65
2022-11-09T16:21:44.786Z,1.80
2022-11-09T16:24:30.257Z,1.75
2022-11-09T16:27:42.907Z,1.83
2022-11-09T16:30:21.768Z,1.85
2022-11-09T16:33:07.241Z,1.80
2022-11-09T16:35:53.793Z,2.08
2022-11-09T16:38:43.721Z,1.20
2022-11-09T16:41:30.626Z,1.50
2022-11-09T16:44:18.867Z,2.08
2022-11-09T16:47:06.620Z,2.13
2022-11-09T16:49:51.606Z,2.17
2022-11-09T16:52:36.942Z,2.33
2022-11-09T16:55:22.333Z,1.83
2022-11-09T16:58:07.964Z,1.83
2022-11-09T17:01:09.999Z,1.88
2022-11-09T17:03:57.626Z,3.10
2022-11-09T17:06:43.091Z,1.98
2022-11-09T17:09:28.283Z,1.52
2022-11-09T17:12:14.276Z,1.77
2022-11-09T17:14:59.731Z,2.15
2022-11-09T17:17:45.302Z,2.05
2022-11-09T17:20:30.853Z,2.47
2022-11-09T17:23:18.572Z,1.17
2022-11-09T17:26:05.637Z,1.90
2022-11-09T17:28:51.420Z,1.67
2022-11-09T17:31:37.359Z,1.60
2022-11-09T17:34:22.847Z,1.60
2022-11-09T17:37:08.404Z,1.98
2022-11-09T17:39:53.996Z,1.50
2022-11-09T17:42:39.936Z,2.20
2022-11-09T17:45:25.994Z,1.85
2022-11-09T17:48:11.113Z,1.50
2022-11-09T17:50:57.983Z,1.52
2022-11-09T17:53:43.847Z,1.52
2022-11-09T17:56:29.112Z,1.83
2022-11-09T17:59:14.373Z,2.10
2022-11-09T18:01:59.934Z,1.55
2022-11-09T18:04:45.355Z,1.65
2022-11-09T18:07:31.165Z,1.77
2022-11-09T18:10:16.644Z,1.70
2022-11-09T18:13:02.274Z,1.85
2022-11-09T18:15:47.331Z,1.50
2022-11-09T18:18:33.375Z,1.77
2022-11-09T18:21:20.220Z,1.55
2022-11-09T18:24:06.116Z,1.92
2022-11-09T18:26:51.115Z,1.73
2022-11-09T18:29:36.542Z,1.55
2022-11-09T18:32:22.150Z,1.77
2022-11-09T18:35:07.493Z,1.13
2022-11-09T18:37:53.292Z,1.30
2022-11-09T18:40:38.782Z,1.25
2022-11-09T18:43:24.232Z,1.58
2022-11-09T18:46:12.370Z,1.48
2022-11-09T18:48:57.657Z,1.67
2022-11-09T18:51:43.946Z,1.30
2022-11-09T18:54:29.434Z,1.58
2022-11-09T18:57:19.585Z,1.30
2022-11-09T19:00:06.099Z,1.23
2022-11-09T19:02:51.879Z,1.13
2022-11-09T19:05:40.061Z,1.75
2022-11-09T19:08:43.973Z,1.73
2022-11-09T19:11:30.182Z,1.42
2022-11-09T19:14:15.514Z,2.05
2022-11-09T19:17:01.157Z,1.80
2022-11-09T19:19:47.000Z,1.60
2022-11-09T19:22:35.212Z,1.92
2022-11-09T19:25:20.522Z,1.80
2022-11-09T19:28:05.923Z,1.90
2022-11-09T19:30:51.203Z,1.92
2022-11-09T19:33:36.636Z,1.75
2022-11-09T19:36:30.210Z,2.47
2022-11-09T19:39:16.373Z,2.60
2022-11-09T19:42:01.763Z,1.83
2022-11-09T19:44:50.865Z,2.38
2022-11-09T19:47:39.746Z,1.55
2022-11-09T19:50:25.067Z,1.77
2022-11-09T19:53:10.565Z,1.75
2022-11-09T19:56:00.360Z,1.90
2022-11-09T19:58:50.443Z,2.08
2022-11-09T20:01:35.919Z,1.90
2022-11-09T20:04:21.494Z,2.70
2022-11-09T20:07:06.794Z,2.33
2022-11-09T20:09:52.286Z,2.33
2022-11-09T20:12:49.601Z,2.40
2022-11-09T20:15:36.360Z,2.45
2022-11-09T20:18:23.963Z,2.45
2022-11-09T20:21:09.905Z,2.20
2022-11-09T20:23:55.578Z,2.70
2022-11-09T20:26:43.408Z,2.42
2022-11-09T20:29:28.804Z,2.45
2022-11-09T20:32:17.794Z,2.47
2022-11-09T20:35:06.755Z,2.30
2022-11-09T20:37:51.909Z,2.20
2022-11-09T20:40:37.191Z,2.45
2022-11-09T20:43:23.584Z,2.00
2022-11-09T20:46:22.887Z,2.17
2022-11-09T20:49:09.230Z,1.80
2022-11-09T20:51:54.523Z,2.25
2022-11-09T20:54:40.270Z,2.40
2022-11-09T20:57:25.804Z,2.55
2022-11-09T21:00:12.650Z,1.80
2022-11-09T21:02:58.713Z,2.30
2022-11-09T21:05:49.314Z,2.08
2022-11-09T21:08:36.681Z,2.28
2022-11-09T21:11:23.916Z,1.95
2022-11-09T21:14:10.209Z,2.47
2022-11-09T21:16:55.646Z,2.75
2022-11-09T21:19:40.988Z,2.20
2022-11-09T21:22:46.358Z,1.92
2022-11-09T21:25:49.767Z,1.70
2022-11-09T21:28:53.743Z,2.20
2022-11-09T21:31:39.507Z,2.00
2022-11-09T21:34:24.897Z,1.85
2022-11-09T21:37:10.680Z,1.67
2022-11-09T21:39:56.157Z,2.47
2022-11-09T21:42:41.266Z,1.92
2022-11-09T21:45:27.427Z,2.45
2022-11-09T21:48:12.730Z,2.10
2022-11-09T21:50:58.159Z,2.53
2022-11-09T21:53:43.737Z,2.38
2022-11-09T21:56:29.406Z,2.05
2022-11-09T21:59:14.793Z,2.30
2022-11-09T22:02:00.485Z,1.95
2022-11-09T22:04:45.760Z,1.73
2022-11-09T22:07:31.204Z,1.55
2022-11-09T22:10:16.594Z,1.90
2022-11-09T22:13:20.646Z,2.30
2022-11-09T22:16:06.856Z,2.35
2022-11-09T22:19:11.425Z,2.35
2022-11-09T22:21:57.021Z,2.40
2022-11-09T22:24:42.616Z,1.73
2022-11-09T22:27:31.186Z,2.38
2022-11-09T22:30:17.074Z,2.25
2022-11-09T22:33:02.693Z,2.58
2022-11-09T22:35:58.987Z,1.90
2022-11-09T22:38:45.124Z,2.08
2022-11-09T22:41:30.336Z,2.00
2022-11-09T22:44:15.721Z,2.35
2022-11-09T22:47:01.572Z,1.75
2022-11-09T22:49:46.647Z,2.15
2022-11-09T22:52:32.010Z,2.47
2022-11-09T22:55:18.592Z,2.08
2022-11-09T22:58:03.961Z,1.90
2022-11-09T23:00:49.711Z,1.65
2022-11-09T23:03:35.446Z,2.05
2022-11-09T23:06:22.102Z,1.67
2022-11-09T23:09:07.764Z,1.70
2022-11-09T23:11:52.972Z,2.00
2022-11-09T23:14:57.084Z,1.20
2022-11-09T23:18:00.809Z,1.77
2022-11-09T23:20:46.437Z,1.13
2022-11-09T23:23:31.919Z,1.30
2022-11-09T23:26:17.592Z,1.40
2022-11-09T23:29:03.543Z,1.35
2022-11-09T23:31:48.694Z,1.05
2022-11-09T23:34:34.133Z,1.42
2022-11-09T23:37:19.689Z,1.58
2022-11-09T23:40:05.789Z,1.33
2022-11-09T23:42:50.985Z,1.58
2022-11-09T23:45:37.843Z,1.50
2022-11-09T23:48:23.102Z,1.63
2022-11-09T23:51:09.282Z,2.08
2022-11-09T23:53:54.849Z,1.48
2022-11-09T23:56:40.124Z,1.30
2022-11-09T23:59:25.433Z,1.23
